Dahinda, Illinois
Current Conditions -  °F | °C
As of 11:35 PM on Monday 26 Jan 2015 (Local Time) from KGBG Reporting Station
Overcast Overcast  
Wind Chill: 34°   Ceiling: 6000
Heat Index: 34°   Visibility: 7mi
Dew Point: 33°   Wind: 3mph
Humidity: 96%   Direction: 300°WNW
Pressure: 29.91"   Gusts: NA
Location:  40.92°N, 90.11°W
Report Text: KGBG 270535Z AUTO 30003KT 7SM SCT036 OVC060 01/00 A2991 RMK AO2 T00100004
Loading
Personal Weather Stations






























Interactive Weather Map New forecast layout! Learn more

10-Day Weather Forecast

Advertisements
Track Severe Weather on mobile